createdAt,value
2018-09-06T00:01:40.429Z,5.78
2018-09-06T00:04:09.160Z,7.08
2018-09-06T00:06:37.898Z,7.00
2018-09-06T00:09:08.375Z,5.70
2018-09-06T00:11:37.122Z,6.53
2018-09-06T00:14:05.831Z,6.03
2018-09-06T00:16:34.607Z,5.80
2018-09-06T00:19:03.306Z,6.37
2018-09-06T00:21:32.060Z,8.13
2018-09-06T00:24:00.813Z,6.15
2018-09-06T00:26:29.498Z,9.00
2018-09-06T00:28:58.208Z,7.90
2018-09-06T00:31:26.927Z,5.97
2018-09-06T00:33:55.627Z,5.78
2018-09-06T00:36:24.338Z,6.45
2018-09-06T00:38:53.042Z,5.92
2018-09-06T00:41:21.750Z,5.78
2018-09-06T00:43:50.486Z,6.97
2018-09-06T00:46:19.143Z,6.40
2018-09-06T00:48:47.817Z,6.25
2018-09-06T00:51:16.597Z,6.30
2018-09-06T00:53:45.378Z,5.85
2018-09-06T00:56:14.122Z,7.10
2018-09-06T00:58:42.886Z,8.75
2018-09-06T01:01:11.564Z,5.80
2018-09-06T01:03:40.298Z,6.03
2018-09-06T01:06:08.704Z,6.00
2018-09-06T01:08:37.397Z,7.65
2018-09-06T01:11:06.398Z,5.78
2018-09-06T01:13:35.059Z,10.32
2018-09-06T01:16:03.757Z,5.62
2018-09-06T01:18:32.415Z,5.45
2018-09-06T01:21:01.202Z,6.28
2018-09-06T01:23:29.916Z,6.30
2018-09-06T01:25:58.551Z,6.65
2018-09-06T01:28:27.212Z,5.55
2018-09-06T01:30:55.891Z,5.50
2018-09-06T01:33:24.579Z,8.13
2018-09-06T01:38:57.805Z,7.58
2018-09-06T01:41:26.490Z,6.53
2018-09-06T01:43:55.195Z,5.97
2018-09-06T01:46:23.874Z,6.17
2018-09-06T01:48:52.591Z,5.35
2018-09-06T01:51:21.287Z,5.80
2018-09-06T01:53:49.941Z,6.00
2018-09-06T01:56:18.637Z,6.03
2018-09-06T01:58:47.353Z,7.70
2018-09-06T02:01:16.246Z,7.08
2018-09-06T02:03:45.079Z,5.80
2018-09-06T02:06:13.778Z,6.72
2018-09-06T02:08:42.583Z,6.15
2018-09-06T02:11:11.241Z,5.92
2018-09-06T02:13:39.540Z,5.50
2018-09-06T02:16:08.220Z,7.08
2018-09-06T02:18:36.906Z,6.15
2018-09-06T02:21:05.666Z,7.87
2018-09-06T02:23:34.389Z,5.72
2018-09-06T02:26:03.109Z,7.00
2018-09-06T02:28:31.777Z,5.80
2018-09-06T02:31:00.534Z,6.40
2018-09-06T02:33:29.250Z,5.80
2018-09-06T02:35:57.641Z,5.60
2018-09-06T02:38:26.297Z,6.50
2018-09-06T02:40:54.965Z,6.28
2018-09-06T02:43:23.647Z,7.85
2018-09-06T02:45:52.299Z,5.53
2018-09-06T02:48:25.146Z,5.95
2018-09-06T02:50:58.840Z,7.25
2018-09-06T02:53:29.692Z,6.83
2018-09-06T02:55:58.499Z,5.55
2018-09-06T02:58:27.174Z,6.42
2018-09-06T03:00:55.855Z,6.12
2018-09-06T03:03:24.505Z,7.20
2018-09-06T03:05:53.259Z,6.30
2018-09-06T03:08:21.989Z,5.50
2018-09-06T03:10:53.548Z,7.90
2018-09-06T03:13:22.314Z,6.70
2018-09-06T03:15:51.015Z,6.47
2018-09-06T03:18:19.750Z,6.12
2018-09-06T03:20:48.412Z,7.17
2018-09-06T03:23:17.062Z,6.60
2018-09-06T03:25:45.751Z,6.60
2018-09-06T03:28:14.471Z,7.17
2018-09-06T03:30:43.145Z,7.42
2018-09-06T03:33:11.812Z,6.47
2018-09-06T03:35:40.498Z,6.33
2018-09-06T03:38:09.175Z,6.33
2018-09-06T03:40:37.859Z,6.47
2018-09-06T03:43:06.574Z,6.60
2018-09-06T03:45:35.268Z,6.30
2018-09-06T03:48:04.006Z,6.55
2018-09-06T03:50:32.290Z,7.25
2018-09-06T03:53:00.577Z,7.65
2018-09-06T03:55:28.876Z,6.17
2018-09-06T03:57:57.615Z,6.08
2018-09-06T04:00:26.314Z,6.50
2018-09-06T04:02:54.616Z,8.20
2018-09-06T04:05:23.354Z,6.30
2018-09-06T04:07:51.799Z,7.28
2018-09-06T04:10:20.485Z,6.35
2018-09-06T04:12:49.167Z,6.43
2018-09-06T04:15:17.873Z,6.22
2018-09-06T04:17:46.540Z,8.80
2018-09-06T04:20:15.397Z,6.12
2018-09-06T04:22:49.021Z,8.53
2018-09-06T04:25:17.777Z,6.00
2018-09-06T04:27:46.558Z,6.87
2018-09-06T04:30:15.283Z,6.03
2018-09-06T04:32:44.040Z,6.92
2018-09-06T04:35:12.688Z,9.20
2018-09-06T04:37:41.368Z,8.50
2018-09-06T04:40:10.063Z,6.35
2018-09-06T04:42:38.764Z,6.45
2018-09-06T04:45:07.489Z,7.28
2018-09-06T04:47:36.250Z,6.20
2018-09-06T04:50:05.019Z,7.00
2018-09-06T04:52:33.690Z,7.33
2018-09-06T04:55:02.361Z,6.92
2018-09-06T04:57:30.717Z,7.03
2018-09-06T04:59:59.445Z,9.30
2018-09-06T05:02:27.786Z,6.72
2018-09-06T05:04:56.467Z,7.23
2018-09-06T05:07:24.748Z,7.37
2018-09-06T05:09:53.430Z,7.12
2018-09-06T05:12:22.109Z,7.70
2018-09-06T05:14:50.785Z,7.22
2018-09-06T05:17:19.092Z,6.90
2018-09-06T05:19:47.772Z,6.27
2018-09-06T05:22:16.457Z,8.33
2018-09-06T05:24:45.219Z,7.87
2018-09-06T05:27:13.910Z,7.58
2018-09-06T05:29:42.577Z,7.53
2018-09-06T05:32:11.253Z,7.00
2018-09-06T05:34:39.900Z,8.03
2018-09-06T05:37:08.580Z,7.13
2018-09-06T05:39:36.906Z,8.53
2018-09-06T05:42:05.625Z,6.55
2018-09-06T05:44:34.333Z,6.95
2018-09-06T05:47:03.057Z,7.22
2018-09-06T05:49:31.341Z,6.97
2018-09-06T05:51:59.769Z,7.22
2018-09-06T05:54:28.468Z,11.30
2018-09-06T05:56:56.781Z,6.28
2018-09-06T05:59:25.452Z,12.35
2018-09-06T06:01:54.111Z,11.03
2018-09-06T06:04:22.443Z,6.03
2018-09-06T06:06:51.129Z,7.40
2018-09-06T06:09:19.822Z,7.87
2018-09-06T06:11:48.230Z,8.05
2018-09-06T06:14:16.913Z,8.93
2018-09-06T06:16:45.221Z,7.93
2018-09-06T06:19:13.912Z,8.28
2018-09-06T06:21:42.695Z,7.67
2018-09-06T06:24:11.356Z,7.67
2018-09-06T06:26:40.081Z,7.40
2018-09-06T06:29:08.810Z,9.58
2018-09-06T06:31:37.174Z,11.12
2018-09-06T06:34:05.920Z,8.63
2018-09-06T06:36:34.611Z,9.50
2018-09-06T06:39:05.645Z,9.97
2018-09-06T06:41:33.970Z,8.53
2018-09-06T06:44:02.321Z,7.45
2018-09-06T06:46:31.044Z,7.72
2018-09-06T06:48:59.367Z,8.35
2018-09-06T06:51:27.693Z,7.33
2018-09-06T06:53:56.062Z,8.58
2018-09-06T06:56:24.781Z,10.08
2018-09-06T06:58:53.495Z,8.50
2018-09-06T07:01:22.180Z,10.70
2018-09-06T07:03:50.906Z,9.93
2018-09-06T07:06:19.220Z,9.25
2018-09-06T07:08:48.008Z,10.32
2018-09-06T07:11:16.698Z,8.00
2018-09-06T07:13:45.395Z,9.53
2018-09-06T07:16:14.089Z,12.95
2018-09-06T07:18:42.484Z,6.92
2018-09-06T07:21:10.806Z,12.93
2018-09-06T07:23:39.513Z,7.30
2018-09-06T07:26:08.179Z,10.05
2018-09-06T07:28:36.941Z,9.83
2018-09-06T07:31:05.767Z,7.85
2018-09-06T07:33:34.470Z,8.73
2018-09-06T07:36:03.199Z,7.80
2018-09-06T07:38:31.904Z,7.47
2018-09-06T07:41:00.640Z,7.95
2018-09-06T07:43:29.307Z,7.35
2018-09-06T07:45:57.950Z,9.48
2018-09-06T07:48:26.597Z,7.37
2018-09-06T07:50:55.322Z,9.58
2018-09-06T07:53:23.983Z,8.28
2018-09-06T07:55:52.733Z,7.25
2018-09-06T07:58:21.432Z,7.08
2018-09-06T08:00:50.119Z,9.20
2018-09-06T08:03:18.923Z,9.58
2018-09-06T08:05:47.236Z,15.65
2018-09-06T08:08:15.573Z,8.58
2018-09-06T08:10:44.305Z,11.43
2018-09-06T08:13:12.642Z,9.35
2018-09-06T08:15:41.355Z,8.75
2018-09-06T08:18:10.046Z,8.73
2018-09-06T08:20:38.757Z,11.38
2018-09-06T08:23:07.483Z,11.03
2018-09-06T08:25:36.189Z,11.97
2018-09-06T08:28:04.556Z,9.03
2018-09-06T08:30:33.704Z,12.43
2018-09-06T08:33:02.539Z,10.58
2018-09-06T08:35:30.910Z,10.70
2018-09-06T08:37:59.255Z,10.53
2018-09-06T08:40:28.104Z,10.30
2018-09-06T08:42:56.817Z,11.03
2018-09-06T08:45:25.634Z,11.00
2018-09-06T08:47:54.350Z,12.18
2018-09-06T08:50:22.784Z,10.10
2018-09-06T08:52:51.113Z,10.72
2018-09-06T08:55:19.827Z,10.32
2018-09-06T08:57:48.529Z,11.57
2018-09-06T09:00:17.206Z,12.15
2018-09-06T09:02:45.710Z,13.00
2018-09-06T09:05:13.940Z,12.23
2018-09-06T09:07:42.444Z,11.93
2018-09-06T09:10:11.163Z,12.53
2018-09-06T09:12:39.543Z,12.25
2018-09-06T09:15:08.117Z,12.28
2018-09-06T09:17:36.810Z,11.65
2018-09-06T09:20:05.657Z,11.88
2018-09-06T09:22:34.406Z,12.63
2018-09-06T09:25:03.175Z,15.58
2018-09-06T09:27:31.872Z,12.63
2018-09-06T09:30:00.528Z,15.58
2018-09-06T09:32:29.240Z,15.20
2018-09-06T09:34:57.945Z,13.30
2018-09-06T09:37:26.764Z,13.62
2018-09-06T09:39:55.092Z,12.40
2018-09-06T09:42:23.794Z,12.07
2018-09-06T09:44:52.514Z,11.20
2018-09-06T09:49:51.045Z,11.33
2018-09-06T09:54:47.430Z,10.50
2018-09-06T09:57:16.214Z,12.37
2018-09-06T09:59:44.936Z,13.65
2018-09-06T10:02:19.060Z,14.38
2018-09-06T10:04:52.942Z,13.68
2018-09-06T10:07:26.883Z,17.20
2018-09-06T10:09:55.571Z,11.78
2018-09-06T10:12:24.355Z,12.25
2018-09-06T10:14:53.122Z,14.50
2018-09-06T10:17:21.834Z,11.60
2018-09-06T10:19:50.943Z,12.90
2018-09-06T10:22:19.284Z,11.57
2018-09-06T10:24:48.015Z,12.37
2018-09-06T10:27:16.756Z,12.88
2018-09-06T10:29:45.433Z,10.38
2018-09-06T10:32:13.758Z,12.82
2018-09-06T10:34:42.452Z,12.80
2018-09-06T10:37:11.171Z,12.23
2018-09-06T10:39:39.493Z,11.95
2018-09-06T10:42:08.272Z,13.20
2018-09-06T10:44:37.039Z,12.80
2018-09-06T10:47:05.819Z,13.58
2018-09-06T10:49:34.623Z,11.25
2018-09-06T10:52:03.338Z,13.43
2018-09-06T10:54:31.688Z,12.10
2018-09-06T10:57:00.401Z,13.25
2018-09-06T10:59:29.393Z,16.57
2018-09-06T11:01:58.195Z,12.40
2018-09-06T11:04:27.622Z,11.60
2018-09-06T11:06:56.327Z,14.15
2018-09-06T11:09:25.166Z,14.65
2018-09-06T11:11:53.885Z,15.23
2018-09-06T11:14:22.617Z,14.87
2018-09-06T11:16:51.277Z,13.35
2018-09-06T11:19:20.031Z,16.90
2018-09-06T11:21:48.799Z,13.62
2018-09-06T11:24:17.463Z,11.40
2018-09-06T11:26:46.118Z,13.15
2018-09-06T11:29:14.841Z,15.43
2018-09-06T11:31:44.049Z,14.45
2018-09-06T11:34:12.483Z,14.90
2018-09-06T11:36:42.406Z,12.95
2018-09-06T11:39:10.748Z,11.75
2018-09-06T11:41:40.139Z,12.88
2018-09-06T11:44:09.798Z,12.70
2018-09-06T11:46:38.893Z,13.05
2018-09-06T11:49:07.916Z,14.83
2018-09-06T11:51:45.759Z,13.40
2018-09-06T11:54:18.676Z,16.48
2018-09-06T11:56:47.469Z,16.60
2018-09-06T11:59:15.792Z,26.23
2018-09-06T12:01:45.031Z,23.15
2018-09-06T12:04:21.960Z,20.57
2018-09-06T12:06:50.907Z,19.90
2018-09-06T12:09:20.585Z,19.30
2018-09-06T12:11:49.312Z,20.15
2018-09-06T12:14:18.028Z,17.70
2018-09-06T12:16:46.734Z,20.30
2018-09-06T12:19:15.427Z,18.02
2018-09-06T12:21:43.795Z,23.00
2018-09-06T12:24:12.137Z,19.40
2018-09-06T12:26:40.942Z,19.37
2018-09-06T12:29:09.686Z,20.40
2018-09-06T12:31:38.400Z,25.70
2018-09-06T12:34:07.182Z,22.80
2018-09-06T12:36:35.912Z,23.38
2018-09-06T12:39:07.383Z,23.95
2018-09-06T12:41:36.618Z,24.32
2018-09-06T12:44:05.284Z,26.33
2018-09-06T12:46:35.062Z,23.35
2018-09-06T12:49:03.857Z,26.02
2018-09-06T12:51:32.617Z,22.58
2018-09-06T12:54:01.457Z,25.97
2018-09-06T12:56:30.158Z,18.62
2018-09-06T12:58:58.975Z,20.35
2018-09-06T13:01:33.813Z,19.87
2018-09-06T13:04:02.246Z,19.57
2018-09-06T13:06:30.987Z,19.02
2018-09-06T13:08:59.658Z,18.80
2018-09-06T13:11:31.612Z,17.42
2018-09-06T13:14:05.172Z,18.98
2018-09-06T13:16:33.745Z,16.40
2018-09-06T13:19:02.853Z,19.07
2018-09-06T13:21:31.921Z,17.50
2018-09-06T13:24:00.652Z,17.05
2018-09-06T13:26:30.377Z,17.07
2018-09-06T13:28:59.811Z,16.05
2018-09-06T13:31:28.543Z,18.12
2018-09-06T13:33:57.193Z,19.65
2018-09-06T13:36:26.204Z,18.12
2018-09-06T13:38:54.992Z,19.73
2018-09-06T13:41:23.701Z,17.62
2018-09-06T13:43:53.573Z,18.27
2018-09-06T13:46:23.163Z,18.77
2018-09-06T13:48:51.822Z,15.28
2018-09-06T13:51:20.548Z,17.80
2018-09-06T13:53:49.277Z,13.38
2018-09-06T13:56:18.001Z,13.35
2018-09-06T13:58:46.716Z,16.57
2018-09-06T14:01:15.758Z,13.53
2018-09-06T14:03:44.452Z,17.60
2018-09-06T14:06:13.247Z,12.70
2018-09-06T14:08:41.564Z,12.60
2018-09-06T14:11:09.875Z,12.05
2018-09-06T14:13:38.590Z,11.60
2018-09-06T14:16:07.649Z,12.45
2018-09-06T14:18:36.476Z,11.70
2018-09-06T14:21:05.202Z,13.00
2018-09-06T14:23:33.890Z,11.95
2018-09-06T14:26:02.584Z,11.33
2018-09-06T14:28:31.293Z,12.03
2018-09-06T14:31:00.023Z,11.48
2018-09-06T14:33:28.699Z,11.73
2018-09-06T14:35:57.373Z,13.38
2018-09-06T14:38:26.117Z,12.45
2018-09-06T14:40:54.810Z,12.10
2018-09-06T14:43:23.528Z,11.18
2018-09-06T14:45:51.867Z,10.00
2018-09-06T14:48:20.199Z,11.25
2018-09-06T14:50:48.954Z,10.78
2018-09-06T14:53:17.690Z,10.40
2018-09-06T14:55:46.412Z,10.13
2018-09-06T14:58:15.106Z,11.83
2018-09-06T15:00:43.389Z,9.25
2018-09-06T15:03:12.094Z,9.83
2018-09-06T15:05:40.826Z,12.10
2018-09-06T15:08:09.583Z,7.75
2018-09-06T15:10:38.374Z,7.35
2018-09-06T15:13:06.696Z,6.85
2018-09-06T15:15:35.479Z,9.03
2018-09-06T15:18:04.152Z,7.60
2018-09-06T15:20:32.843Z,7.35
2018-09-06T15:23:01.506Z,8.10
2018-09-06T15:25:30.234Z,7.15
2018-09-06T15:27:59.050Z,7.08
2018-09-06T15:30:27.778Z,6.95
2018-09-06T15:32:56.538Z,7.25
2018-09-06T15:35:24.862Z,7.50
2018-09-06T15:37:53.580Z,6.60
2018-09-06T15:40:21.919Z,7.37
2018-09-06T15:42:50.617Z,6.70
2018-09-06T15:45:19.349Z,6.47
2018-09-06T15:47:54.330Z,6.72
2018-09-06T15:50:23.027Z,6.58
2018-09-06T15:52:51.734Z,5.87
2018-09-06T15:55:20.442Z,6.83
2018-09-06T15:57:49.117Z,6.62
2018-09-06T16:00:17.785Z,6.60
2018-09-06T16:02:46.115Z,8.20
2018-09-06T16:05:14.931Z,6.37
2018-09-06T16:07:43.670Z,6.70
2018-09-06T16:10:11.939Z,6.95
2018-09-06T16:12:41.103Z,6.30
2018-09-06T16:15:09.843Z,7.42
2018-09-06T16:17:38.517Z,6.80
2018-09-06T16:20:07.183Z,6.50
2018-09-06T16:22:35.607Z,7.28
2018-09-06T16:25:04.399Z,7.87
2018-09-06T16:27:35.140Z,7.90
2018-09-06T16:30:03.578Z,7.78
2018-09-06T16:32:32.278Z,8.00
2018-09-06T16:35:00.984Z,7.75
2018-09-06T16:37:29.649Z,7.35
2018-09-06T16:39:58.285Z,7.78
2018-09-06T16:42:27.029Z,7.40
2018-09-06T16:44:55.333Z,8.13
2018-09-06T16:47:24.036Z,8.33
2018-09-06T16:49:52.711Z,8.68
2018-09-06T16:52:21.421Z,8.20
2018-09-06T16:54:50.107Z,9.28
2018-09-06T16:57:18.758Z,9.13
2018-09-06T16:59:47.467Z,9.75
2018-09-06T17:02:16.140Z,9.70
2018-09-06T17:04:45.269Z,10.05
2018-09-06T17:07:13.616Z,11.93
2018-09-06T17:09:42.338Z,11.45
2018-09-06T17:12:11.030Z,12.00
2018-09-06T17:14:39.454Z,11.93
2018-09-06T17:17:08.131Z,12.60
2018-09-06T17:19:36.889Z,12.23
2018-09-06T17:22:05.260Z,13.65
2018-09-06T17:24:33.904Z,13.48
2018-09-06T17:27:02.661Z,14.58
2018-09-06T17:29:31.011Z,15.13
2018-09-06T17:31:59.826Z,15.50
2018-09-06T17:34:28.529Z,16.15
2018-09-06T17:36:57.230Z,17.30
2018-09-06T17:39:25.680Z,17.48
2018-09-06T17:41:54.037Z,17.85
2018-09-06T17:44:22.716Z,18.23
2018-09-06T17:46:51.052Z,18.35
2018-09-06T17:49:19.761Z,17.12
2018-09-06T17:51:48.087Z,16.57
2018-09-06T17:54:16.775Z,14.38
2018-09-06T17:56:45.485Z,15.83
2018-09-06T17:59:13.902Z,17.32
2018-09-06T18:01:43.630Z,15.35
2018-09-06T18:04:11.967Z,16.20
2018-09-06T18:06:40.707Z,16.95
2018-09-06T18:09:09.756Z,18.02
2018-09-06T18:11:38.431Z,17.92
2018-09-06T18:14:06.788Z,20.48
2018-09-06T18:16:35.519Z,17.17
2018-09-06T18:19:04.271Z,18.20
2018-09-06T18:21:32.629Z,18.35
2018-09-06T18:24:00.984Z,18.55
2018-09-06T18:26:29.716Z,20.25
2018-09-06T18:28:58.340Z,20.32
2018-09-06T18:31:27.027Z,19.70
2018-09-06T18:33:55.467Z,16.82
2018-09-06T18:36:24.219Z,18.60
2018-09-06T18:38:52.590Z,17.80
2018-09-06T18:41:21.302Z,15.85
2018-09-06T18:43:50.004Z,15.58
2018-09-06T18:46:18.720Z,16.17
2018-09-06T18:48:47.425Z,17.52
2018-09-06T18:51:16.176Z,16.35
2018-09-06T18:53:44.895Z,16.55
2018-09-06T18:56:13.579Z,18.85
2018-09-06T18:58:42.418Z,17.52
2018-09-06T19:01:11.037Z,16.95
2018-09-06T19:03:39.734Z,19.92
2018-09-06T19:06:08.492Z,20.27
2018-09-06T19:08:37.309Z,21.30
2018-09-06T19:11:06.211Z,22.65
2018-09-06T19:13:34.950Z,23.90
2018-09-06T19:16:03.660Z,26.45
2018-09-06T19:18:33.559Z,25.95
2018-09-06T19:21:02.282Z,26.55
2018-09-06T19:23:30.960Z,27.95
2018-09-06T19:25:59.689Z,29.15
2018-09-06T19:28:28.451Z,31.60
2018-09-06T19:30:57.174Z,33.83
2018-09-06T19:33:25.851Z,35.10
2018-09-06T19:35:54.570Z,36.58
2018-09-06T19:38:23.253Z,34.23
2018-09-06T19:40:52.042Z,36.95
2018-09-06T19:43:20.865Z,34.88
2018-09-06T19:45:49.591Z,37.48
2018-09-06T19:48:18.248Z,40.92
2018-09-06T19:50:46.973Z,41.02
2018-09-06T19:53:15.309Z,41.70
2018-09-06T19:57:13.183Z,42.67
2018-09-06T19:59:42.822Z,44.10
2018-09-06T20:02:11.494Z,44.65
2018-09-06T20:04:40.175Z,50.90
2018-09-06T20:07:08.854Z,48.80
2018-09-06T20:09:37.581Z,50.60
2018-09-06T20:12:06.255Z,49.25
2018-09-06T20:14:34.963Z,52.43
2018-09-06T20:17:03.303Z,61.60
2018-09-06T20:19:32.049Z,56.95
2018-09-06T20:22:00.785Z,60.05
2018-09-06T20:24:29.497Z,64.27
2018-09-06T20:26:58.165Z,62.48
2018-09-06T20:29:26.832Z,69.05
2018-09-06T20:31:55.523Z,69.35
2018-09-06T20:34:24.266Z,69.65
2018-09-06T20:36:52.937Z,68.55
2018-09-06T20:39:21.264Z,69.20
2018-09-06T20:41:50.042Z,67.05
2018-09-06T20:44:18.350Z,69.15
2018-09-06T20:46:47.033Z,68.62
2018-09-06T20:49:15.770Z,64.58
2018-09-06T20:51:44.090Z,73.12
2018-09-06T20:54:12.481Z,73.10
2018-09-06T20:56:41.161Z,70.17
2018-09-06T20:59:09.925Z,79.58
2018-09-06T21:01:38.613Z,73.67
2018-09-06T21:04:07.357Z,72.03
2018-09-06T21:06:36.087Z,72.85
2018-09-06T21:09:06.046Z,72.05
2018-09-06T21:11:34.838Z,74.95
2018-09-06T21:14:03.572Z,72.50
2018-09-06T21:16:32.359Z,69.92
2018-09-06T21:19:01.129Z,74.37
2018-09-06T21:21:29.922Z,72.90
2018-09-06T21:23:58.634Z,73.78
2018-09-06T21:26:27.536Z,79.60
2018-09-06T21:28:56.219Z,73.60
2018-09-06T21:31:24.535Z,78.30
2018-09-06T21:33:53.317Z,70.37
2018-09-06T21:36:22.032Z,71.55
2018-09-06T21:38:50.712Z,77.47
2018-09-06T21:41:19.379Z,84.17
2018-09-06T21:43:48.090Z,88.72
2018-09-06T21:46:16.445Z,79.50
2018-09-06T21:48:45.136Z,74.12
2018-09-06T21:51:13.841Z,80.00
2018-09-06T21:53:42.565Z,84.47
2018-09-06T21:56:11.204Z,85.47
2018-09-06T21:58:39.871Z,81.40
2018-09-06T22:01:08.777Z,83.75
2018-09-06T22:03:42.746Z,86.60
2018-09-06T22:06:11.435Z,80.72
2018-09-06T22:08:40.130Z,83.05
2018-09-06T22:11:08.863Z,80.97
2018-09-06T22:13:37.507Z,82.75
2018-09-06T22:16:06.299Z,76.17
2018-09-06T22:18:34.667Z,83.82
2018-09-06T22:21:03.090Z,83.42
2018-09-06T22:23:31.441Z,87.42
2018-09-06T22:26:00.116Z,76.85
2018-09-06T22:28:28.962Z,83.40
2018-09-06T22:30:57.677Z,81.67
2018-09-06T22:33:26.379Z,91.25
2018-09-06T22:35:55.061Z,83.37
2018-09-06T22:38:23.732Z,87.12
2018-09-06T22:40:52.415Z,79.00
2018-09-06T22:43:21.106Z,77.20
2018-09-06T22:45:49.805Z,79.62
2018-09-06T22:48:18.510Z,76.25
2018-09-06T22:50:47.465Z,83.22
2018-09-06T22:53:16.152Z,77.87
2018-09-06T22:55:44.773Z,79.90
2018-09-06T22:58:13.466Z,83.20
2018-09-06T23:00:42.237Z,80.92
2018-09-06T23:03:16.192Z,75.72
2018-09-06T23:05:44.868Z,81.17
2018-09-06T23:08:13.585Z,86.87
2018-09-06T23:10:42.255Z,78.60
2018-09-06T23:13:11.000Z,81.08
2018-09-06T23:15:39.697Z,81.20
2018-09-06T23:18:08.471Z,72.80
2018-09-06T23:20:37.131Z,78.75
2018-09-06T23:23:05.860Z,74.53
2018-09-06T23:25:34.550Z,66.33
2018-09-06T23:28:03.222Z,67.95
2018-09-06T23:30:31.888Z,64.22
2018-09-06T23:33:00.553Z,66.90
2018-09-06T23:35:28.846Z,67.37
2018-09-06T23:37:57.544Z,64.42
2018-09-06T23:40:26.337Z,60.60
2018-09-06T23:42:55.037Z,60.03
2018-09-06T23:45:23.743Z,53.80
2018-09-06T23:47:52.439Z,49.98
2018-09-06T23:50:21.176Z,47.50
2018-09-06T23:52:49.880Z,49.08
2018-09-06T23:55:18.588Z,49.53
2018-09-06T23:57:47.290Z,47.45
